Time;durP1;ratioP1;P1;durP2;ratioP2;P2;SDS_P1;SDS_P2;PMS_P1;PMS_P2;Temp;Humidity;BMP_temperature;BMP_pressure;BME280_temperature;BME280_humidity;BME280_pressure;Samples;Min_cycle;Max_cycle;Signal;HPM_P1;HPM_P2
2021/01/04 00:00:21;;;;;;;4.97;4.47;;;;;;;2.13;75.30;101138.25;687263;28;137689;-61
2021/01/04 00:00:48;;;;;;;5.05;4.50;;;;;;;2.15;75.22;101141.63;690754;28;38570;-60
2021/01/04 00:01:30;;;;;;;6.43;4.90;;;;;;;2.15;75.22;101141.63;687125;28;136389;-63
2021/01/04 00:02:05;;;;;;;5.05;4.55;;;;;;;2.15;75.25;101140.78;687227;28;127315;-61
2021/01/04 00:02:33;;;;;;;5.45;4.65;;;;;;;2.15;75.37;101138.13;685963;28;160740;-59
2021/01/04 00:03:15;;;;;;;6.00;4.43;;;;;;;2.12;75.19;101135.69;685992;28;160797;-62
2021/01/04 00:04:00;;;;;;;5.38;4.07;;;;;;;2.15;75.32;101138.13;686838;28;137458;-62
2021/01/04 00:05:02;;;;;;;4.95;4.53;;;;;;;2.13;74.93;101138.25;686268;28;136135;-63
2021/01/04 00:05:31;;;;;;;5.25;4.70;;;;;;;2.15;75.28;101135.47;686826;28;137320;-62
2021/01/04 00:05:59;;;;;;;5.20;4.38;;;;;;;2.15;75.21;101138.13;686935;28;138601;-63
2021/01/04 00:06:33;;;;;;;4.85;4.07;;;;;;;2.12;75.11;101128.53;686684;28;136009;-63
2021/01/04 00:07:34;;;;;;;5.82;4.38;;;;;;;2.14;75.27;101136.41;687048;28;136836;-60
2021/01/04 00:08:31;;;;;;;5.40;4.35;;;;;;;2.14;75.29;101131.09;686728;28;139554;-61
2021/01/04 00:09:07;;;;;;;4.60;4.20;;;;;;;2.15;75.21;101136.31;678596;28;138446;-62
2021/01/04 00:09:40;;;;;;;5.60;4.43;;;;;;;2.15;75.23;101138.13;687229;28;124508;-62
2021/01/04 00:10:10;;;;;;;5.03;4.30;;;;;;;2.14;75.41;101134.59;687136;28;137575;-62
2021/01/04 00:10:39;;;;;;;5.38;4.30;;;;;;;2.16;75.28;101134.47;687396;28;135794;-63
2021/01/04 00:11:10;;;;;;;4.57;4.28;;;;;;;2.15;75.22;101130.97;686742;28;138557;-63
2021/01/04 00:11:39;;;;;;;5.68;4.60;;;;;;;2.15;75.24;101144.28;687247;28;136402;-61
2021/01/04 00:12:03;;;;;;;4.82;4.35;;;;;;;2.15;75.34;101138.13;686623;28;138949;-60
2021/01/04 00:12:28;;;;;;;4.97;4.20;;;;;;;2.15;75.22;101130.13;688237;28;92308;-62
2021/01/04 00:12:54;;;;;;;4.93;4.43;;;;;;;2.13;75.29;101132.03;687727;28;113611;-62
2021/01/04 00:13:26;;;;;;;4.75;4.00;;;;;;;2.14;75.20;101134.59;686649;28;137887;-62
2021/01/04 00:14:50;;;;;;;4.38;4.07;;;;;;;2.16;75.29;101138.00;697103;28;21041;-61
2021/01/04 00:15:14;;;;;;;4.70;4.30;;;;;;;2.17;75.39;101131.69;691775;28;137720;-60
2021/01/04 00:15:41;;;;;;;4.90;4.40;;;;;;;2.17;75.37;101133.53;692891;28;115205;-62
2021/01/04 00:16:08;;;;;;;5.07;4.07;;;;;;;2.17;75.28;101136.19;691878;28;136327;-62
2021/01/04 00:16:49;;;;;;;4.35;3.95;;;;;;;2.17;75.31;101134.38;693011;28;136253;-60
2021/01/04 00:17:18;;;;;;;5.25;4.32;;;;;;;2.18;75.14;101140.56;690755;28;137607;-62
2021/01/04 00:18:02;;;;;;;5.50;4.35;;;;;;;2.20;75.37;101141.28;692064;28;137896;-62
2021/01/04 00:18:35;;;;;;;4.90;4.40;;;;;;;2.20;75.17;101135.13;691417;28;160341;-63
2021/01/04 00:19:03;;;;;;;4.82;4.22;;;;;;;2.20;75.12;101137.78;693265;28;138338;-63
2021/01/04 00:19:28;;;;;;;4.75;4.32;;;;;;;2.18;75.10;101127.25;694728;28;62687;-61
2021/01/04 00:19:54;;;;;;;5.40;3.88;;;;;;;2.20;75.00;101132.47;694458;28;71511;-63
2021/01/04 00:20:20;;;;;;;4.50;4.10;;;;;;;2.20;75.13;101135.13;691045;28;161055;-63
2021/01/04 00:20:46;;;;;;;6.22;4.28;;;;;;;2.19;75.08;101133.41;692303;28;134085;-62
2021/01/04 00:21:14;;;;;;;4.50;4.10;;;;;;;2.16;74.95;101122.03;691548;28;147402;-62
2021/01/04 00:21:40;;;;;;;4.53;4.13;;;;;;;2.19;74.96;101134.25;693380;28;138601;-62
2021/01/04 00:22:05;;;;;;;4.63;4.22;;;;;;;2.19;75.01;101136.06;692642;28;125158;-61
2021/01/04 00:22:37;;;;;;;4.53;4.13;;;;;;;2.19;75.06;101136.91;692415;28;115658;-63
2021/01/04 00:23:03;;;;;;;4.40;3.90;;;;;;;2.18;75.06;101137.91;691704;28;137196;-63
2021/01/04 00:23:32;;;;;;;5.03;4.25;;;;;;;2.20;75.19;101135.13;691753;28;138014;-62
2021/01/04 00:24:04;;;;;;;4.55;4.13;;;;;;;2.20;75.25;101137.78;692562;28;137024;-62
2021/01/04 00:24:36;;;;;;;3.97;3.67;;;;;;;2.19;75.16;101136.06;691595;28;136405;-62
2021/01/04 00:25:09;;;;;;;4.90;4.47;;;;;;;2.20;75.13;101135.13;692201;28;137736;-62
2021/01/04 00:25:44;;;;;;;4.32;3.92;;;;;;;2.18;75.06;101132.56;692026;28;137721;-62
2021/01/04 00:26:09;;;;;;;4.20;3.90;;;;;;;2.20;75.29;101137.78;690741;28;138690;-61
2021/01/04 00:26:38;;;;;;;4.50;4.10;;;;;;;2.19;75.05;101144.06;691956;28;138262;-62
2021/01/04 00:27:03;;;;;;;4.95;4.32;;;;;;;2.20;75.13;101135.97;692960;28;138771;-60
2021/01/04 00:27:31;;;;;;;4.53;4.10;;;;;;;2.20;75.11;101137.78;692485;28;115660;-62
2021/01/04 00:27:56;;;;;;;4.53;4.07;;;;;;;2.19;75.06;101136.06;691083;28;161769;-63
2021/01/04 00:28:20;;;;;;;4.93;4.25;;;;;;;2.19;75.13;101136.06;691958;28;138183;-60
2021/01/04 00:28:43;;;;;;;4.53;4.13;;;;;;;2.19;75.08;101134.25;694574;28;69549;-62
2021/01/04 00:29:05;;;;;;;4.97;4.25;;;;;;;2.17;75.13;101142.34;695140;28;92141;-61
2021/01/04 00:29:26;;;;;;;5.35;4.60;;;;;;;2.17;75.05;101137.03;695662;28;24590;-62
2021/01/04 00:29:50;;;;;;;4.50;4.10;;;;;;;2.18;75.19;101132.56;695204;28;46345;-62
2021/01/04 00:30:28;;;;;;;4.85;4.40;;;;;;;2.14;75.13;101131.09;693532;28;92991;-60
2021/01/04 00:30:53;;;;;;;4.90;4.50;;;;;;;2.16;75.13;101130.03;692925;28;114796;-59
2021/01/04 00:31:19;;;;;;;4.50;4.10;;;;;;;2.14;75.17;101134.59;692728;28;115096;-63
2021/01/04 00:31:42;;;;;;;5.78;4.13;;;;;;;2.15;75.04;101130.97;693439;28;137964;-59
2021/01/04 00:32:20;;;;;;;4.75;4.35;;;;;;;2.16;75.07;101130.03;693680;28;66727;-61
2021/01/04 00:32:43;;;;;;;4.40;4.00;;;;;;;2.16;75.22;101127.34;692205;28;138244;-62
2021/01/04 00:33:15;;;;;;;5.60;4.00;;;;;;;2.17;75.17;101122.88;693945;28;44384;-61
2021/01/04 00:33:40;;;;;;;4.38;3.97;;;;;;;2.16;75.02;101132.69;690859;28;135763;-61
2021/01/04 00:34:06;;;;;;;4.65;4.18;;;;;;;2.17;75.10;101130.84;693651;28;114555;-59
2021/01/04 00:34:31;;;;;;;4.70;4.05;;;;;;;2.16;75.13;101124.69;692490;28;115231;-62
2021/01/04 00:34:54;;;;;;;5.35;4.38;;;;;;;2.15;75.09;101122.97;692607;28;115875;-62
2021/01/04 00:35:18;;;;;;;4.55;4.13;;;;;;;2.18;75.15;101124.56;694128;28;69385;-62
2021/01/04 00:35:39;;;;;;;4.72;4.22;;;;;;;2.17;75.11;101126.38;692867;28;115117;-62
2021/01/04 00:36:03;;;;;;;4.63;4.18;;;;;;;2.17;75.05;101131.69;694653;28;22372;-62
2021/01/04 00:36:30;;;;;;;4.50;4.10;;;;;;;2.18;75.03;101132.56;694087;28;91173;-60
2021/01/04 00:37:24;;;;;;;4.50;4.10;;;;;;;2.15;74.91;101130.97;691164;28;137677;-60
2021/01/04 00:38:09;;;;;;;4.70;4.20;;;;;;;2.15;75.22;101120.31;690964;28;160626;-62
2021/01/04 00:39:07;;;;;;;4.10;3.80;;;;;;;2.18;75.23;101124.56;689496;28;138417;-62
2021/01/04 00:39:39;;;;;;;4.65;4.20;;;;;;;2.19;75.00;101125.41;681225;28;158618;-59
2021/01/04 00:40:04;;;;;;;4.25;3.85;;;;;;;2.19;74.81;101130.75;681954;28;137214;-60
2021/01/04 00:40:34;;;;;;;4.50;4.00;;;;;;;2.20;74.97;101129.78;692375;28;115337;-60
2021/01/04 00:41:08;;;;;;;4.38;4.00;;;;;;;2.19;74.95;101128.91;691881;28;137768;-60
2021/01/04 00:41:40;;;;;;;4.50;4.10;;;;;;;2.18;75.04;101129.91;692818;28;137507;-62
2021/01/04 00:42:15;;;;;;;4.30;3.90;;;;;;;2.17;75.03;101123.69;691929;28;137740;-63
2021/01/04 00:42:39;;;;;;;4.63;3.90;;;;;;;2.19;75.02;101134.25;691825;28;139288;-59
2021/01/04 00:43:02;;;;;;;4.25;3.80;;;;;;;2.17;75.05;101122.88;693475;28;92295;-62
2021/01/04 00:43:30;;;;;;;4.68;3.90;;;;;;;2.15;75.06;101125.63;694379;28;69412;-60
2021/01/04 00:43:57;;;;;;;4.65;4.10;;;;;;;2.17;75.01;101134.38;691927;28;138063;-62
2021/01/04 00:44:22;;;;;;;4.40;4.00;;;;;;;2.17;75.00;101137.03;691099;28;137786;-62
2021/01/04 00:44:53;;;;;;;4.03;3.70;;;;;;;2.17;75.13;101125.53;692785;28;115046;-64
2021/01/04 00:45:19;;;;;;;4.40;3.95;;;;;;;2.16;75.10;101131.81;689612;28;160803;-63
2021/01/04 00:45:43;;;;;;;4.30;3.90;;;;;;;2.12;75.05;101122.34;691506;28;137903;-61
2021/01/04 00:46:05;;;;;;;4.65;3.90;;;;;;;2.16;74.96;101129.16;693714;28;92559;-63
2021/01/04 00:46:33;;;;;;;4.25;3.80;;;;;;;2.15;75.10;101125.63;696321;28;45238;-61
2021/01/04 00:47:01;;;;;;;5.25;3.92;;;;;;;2.11;75.05;101120.66;691070;28;161072;-61
2021/01/04 00:47:27;;;;;;;3.90;3.60;;;;;;;2.16;75.09;101137.13;691813;28;136349;-62
2021/01/04 00:47:59;;;;;;;4.32;3.78;;;;;;;2.12;75.04;101125.88;691921;28;137944;-62
2021/01/04 00:48:26;;;;;;;4.35;3.95;;;;;;;2.17;75.12;101136.19;692041;28;137493;-58
2021/01/04 00:49:01;;;;;;;4.60;4.20;;;;;;;2.17;75.25;101137.03;692043;28;138098;-60
2021/01/04 00:49:28;;;;;;;4.30;3.90;;;;;;;2.18;75.09;101129.91;692140;28;138596;-62
2021/01/04 00:49:55;;;;;;;4.68;4.20;;;;;;;2.18;75.06;101132.56;691999;28;136346;-62
2021/01/04 00:50:21;;;;;;;4.25;3.85;;;;;;;2.17;75.17;101130.84;691801;28;139071;-61
2021/01/04 00:50:53;;;;;;;5.10;3.97;;;;;;;2.17;75.21;101130.84;691177;28;159574;-59
2021/01/04 00:51:30;;;;;;;4.20;3.80;;;;;;;2.17;75.07;101139.69;692092;28;137299;-59
2021/01/04 00:51:56;;;;;;;4.55;4.15;;;;;;;2.16;75.13;101132.69;691926;28;135976;-62
2021/01/04 00:52:25;;;;;;;4.20;3.88;;;;;;;2.17;75.36;101130.84;692072;28;137993;-60
2021/01/04 00:52:55;;;;;;;4.65;4.20;;;;;;;2.17;75.07;101130.84;691928;28;137796;-61
2021/01/04 00:53:21;;;;;;;4.60;4.10;;;;;;;2.14;75.11;101126.59;692183;28;137711;-61
2021/01/04 00:53:45;;;;;;;4.35;3.95;;;;;;;2.17;75.19;101136.19;692322;28;124176;-62
2021/01/04 00:54:17;;;;;;;4.03;3.72;;;;;;;2.15;75.07;101138.97;695061;28;67600;-62
2021/01/04 00:54:52;;;;;;;4.05;3.75;;;;;;;2.17;75.26;101133.53;691092;28;158114;-62
2021/01/04 00:55:46;;;;;;;6.25;4.18;;;;;;;2.15;75.10;101130.97;691580;28;137531;-61
2021/01/04 00:56:29;;;;;;;4.20;3.80;;;;;;;2.16;75.08;101127.34;689636;28;137320;-61
2021/01/04 00:56:59;;;;;;;3.92;3.63;;;;;;;2.17;75.15;101129.03;691646;28;137719;-60
2021/01/04 00:57:35;;;;;;;4.47;3.90;;;;;;;2.17;75.07;101130.84;690538;28;137881;-59
2021/01/04 00:58:22;;;;;;;4.40;4.00;;;;;;;2.16;75.19;101130.03;690792;28;160103;-60
2021/01/04 00:59:14;;;;;;;4.80;4.30;;;;;;;2.18;75.12;101132.56;689890;28;160617;-66
2021/01/04 00:59:44;;;;;;;4.05;3.75;;;;;;;2.17;74.98;101126.38;686235;28;138474;-63
2021/01/04 01:00:15;;;;;;;4.45;3.95;;;;;;;2.19;74.97;101131.59;691933;28;135847;-61
2021/01/04 01:00:37;;;;;;;4.30;3.90;;;;;;;2.17;74.90;101129.03;692137;28;138418;-60
2021/01/04 01:01:04;;;;;;;4.40;4.00;;;;;;;2.18;75.19;101127.25;694442;28;68465;-61
2021/01/04 01:01:29;;;;;;;4.63;4.22;;;;;;;2.19;75.12;101133.41;693063;28;137900;-61
2021/01/04 01:02:37;;;;;;;4.85;4.15;;;;;;;2.17;75.05;101129.03;692767;28;115472;-60
2021/01/04 01:03:15;;;;;;;3.85;3.40;;;;;;;2.18;75.09;101127.25;691871;28;138112;-62
2021/01/04 01:03:45;;;;;;;5.13;4.03;;;;;;;2.19;75.03;101131.59;691968;28;137563;-61
2021/01/04 01:04:16;;;;;;;4.25;3.60;;;;;;;2.19;75.02;101136.91;691335;28;138589;-58
2021/01/04 01:04:41;;;;;;;4.40;4.00;;;;;;;2.12;75.08;101122.34;691662;28;138605;-59
2021/01/04 01:05:10;;;;;;;4.30;3.90;;;;;;;2.17;75.06;101131.69;692816;28;110804;-59
2021/01/04 01:05:38;;;;;;;4.78;3.92;;;;;;;2.17;75.01;101137.03;692002;28;135124;-61
2021/01/04 01:06:02;;;;;;;4.22;3.88;;;;;;;2.16;75.10;101127.34;690448;28;138122;-61
2021/01/04 01:06:34;;;;;;;4.30;3.90;;;;;;;2.16;75.21;101131.81;692588;28;115114;-60
2021/01/04 01:07:02;;;;;;;5.63;4.20;;;;;;;2.16;75.25;101130.03;690563;28;138376;-62
2021/01/04 01:08:00;;;;;;;5.28;4.10;;;;;;;2.17;75.05;101133.53;691042;28;161048;-62
2021/01/04 01:08:25;;;;;;;4.03;3.67;;;;;;;2.17;75.15;101139.69;691702;28;137674;-62
2021/01/04 01:08:50;;;;;;;4.70;4.00;;;;;;;2.18;75.13;101137.91;692631;28;115309;-63
2021/01/04 01:09:13;;;;;;;4.63;4.22;;;;;;;2.18;75.13;101135.22;693385;28;115165;-62
2021/01/04 01:09:36;;;;;;;4.70;4.20;;;;;;;2.17;75.10;101134.38;694259;28;69272;-62
2021/01/04 01:09:58;;;;;;;4.30;3.90;;;;;;;2.17;75.03;101137.03;694268;28;70188;-63
2021/01/04 01:10:20;;;;;;;4.00;3.70;;;;;;;2.17;75.07;101134.38;694996;28;44217;-62
2021/01/04 01:10:44;;;;;;;4.30;3.90;;;;;;;2.17;75.10;101137.03;696047;28;21549;-62
2021/01/04 01:11:09;;;;;;;4.38;3.97;;;;;;;2.18;74.97;101135.22;692437;28;115578;-60
2021/01/04 01:11:50;;;;;;;4.20;3.80;;;;;;;2.17;74.97;101136.19;694092;28;113569;-62
2021/01/04 01:12:23;;;;;;;4.43;4.03;;;;;;;2.14;75.14;101120.41;692002;28;132431;-63
2021/01/04 01:12:48;;;;;;;4.50;4.05;;;;;;;2.18;74.96;101135.22;691922;28;137665;-63
2021/01/04 01:13:16;;;;;;;4.78;3.75;;;;;;;2.17;75.40;101133.53;692573;28;116048;-62
2021/01/04 01:14:02;;;;;;;3.92;3.53;;;;;;;2.19;75.16;101136.06;691720;28;138649;-63
2021/01/04 01:14:26;;;;;;;4.35;3.78;;;;;;;2.12;74.88;101117.03;693094;28;137286;-62
2021/01/04 01:15:08;;;;;;;6.15;4.00;;;;;;;2.19;74.96;101130.75;696321;28;92313;-62
2021/01/04 01:15:32;;;;;;;4.38;4.00;;;;;;;2.19;74.81;101136.91;694443;28;138628;-62
2021/01/04 01:16:17;;;;;;;4.38;3.97;;;;;;;2.19;75.08;101138.75;698871;28;16382;-61
2021/01/04 01:17:26;;;;;;;4.85;3.95;;;;;;;2.13;75.00;101124.91;696061;28;136840;-63
2021/01/04 01:18:22;;;;;;;4.47;4.07;;;;;;;2.14;74.95;101131.09;694794;28;133897;-62
2021/01/04 01:18:46;;;;;;;4.18;3.78;;;;;;;2.17;75.10;101137.03;693627;28;137226;-62
2021/01/04 01:19:15;;;;;;;3.92;3.53;;;;;;;2.18;75.03;101135.22;697504;28;92312;-61
2021/01/04 01:19:44;;;;;;;4.18;3.78;;;;;;;2.17;74.95;101137.03;694792;28;137976;-63
2021/01/04 01:20:10;;;;;;;4.10;3.60;;;;;;;2.19;75.01;101138.75;694624;28;138945;-61
2021/01/04 01:20:33;;;;;;;4.22;3.88;;;;;;;2.19;75.05;101139.59;694541;28;136523;-61
2021/01/04 01:20:55;;;;;;;4.60;4.10;;;;;;;2.17;75.00;101131.69;697087;28;69729;-60
2021/01/04 01:21:17;;;;;;;4.68;4.22;;;;;;;2.17;75.00;101139.69;696975;28;67329;-61
2021/01/04 01:21:38;;;;;;;4.30;3.90;;;;;;;2.18;75.12;101129.91;699041;28;23543;-61
2021/01/04 01:22:00;;;;;;;3.83;3.53;;;;;;;2.19;75.15;101136.06;698628;28;23547;-61
2021/01/04 01:22:27;;;;;;;4.47;4.00;;;;;;;2.19;75.20;101136.06;697617;28;46336;-61
2021/01/04 01:22:49;;;;;;;4.30;3.90;;;;;;;2.17;75.04;101134.38;694489;28;136293;-63
2021/01/04 01:23:11;;;;;;;4.22;3.83;;;;;;;2.19;75.20;101136.06;698054;28;45718;-62
2021/01/04 01:23:35;;;;;;;4.00;3.60;;;;;;;2.20;75.03;101137.78;697553;28;45322;-62
2021/01/04 01:23:57;;;;;;;4.35;3.97;;;;;;;2.14;75.13;101129.25;697185;28;90557;-62
2021/01/04 01:24:18;;;;;;;4.38;3.97;;;;;;;2.20;75.00;101140.44;697989;28;44190;-61
2021/01/04 01:24:40;;;;;;;5.07;4.13;;;;;;;2.19;75.05;101136.91;697488;28;44700;-61
2021/01/04 01:25:07;;;;;;;5.57;3.85;;;;;;;2.18;74.99;101135.22;698522;28;18120;-62
2021/01/04 01:25:39;;;;;;;4.30;3.90;;;;;;;2.19;75.02;101138.75;694646;28;137630;-62
2021/01/04 01:26:15;;;;;;;4.30;3.90;;;;;;;2.16;74.88;101131.81;691232;28;161181;-62
2021/01/04 01:27:09;;;;;;;5.18;4.10;;;;;;;2.19;75.01;101136.06;694581;28;127119;-63
2021/01/04 01:27:48;;;;;;;4.85;3.90;;;;;;;2.19;74.97;101139.59;691584;28;137615;-63
2021/01/04 01:28:47;;;;;;;3.95;3.65;;;;;;;2.18;75.07;101137.91;691297;28;138426;-62
2021/01/04 01:29:18;;;;;;;5.03;4.15;;;;;;;2.15;75.09;101133.63;694060;28;138594;-61
2021/01/04 01:30:04;;;;;;;3.97;3.67;;;;;;;2.18;74.99;101137.91;691440;28;138505;-61
2021/01/04 01:30:58;;;;;;;4.20;3.72;;;;;;;2.17;75.05;101134.38;691376;28;137419;-61
2021/01/04 01:31:47;;;;;;;4.55;4.15;;;;;;;2.17;74.99;101133.53;692541;28;138883;-62
2021/01/04 01:32:37;;;;;;;4.30;3.90;;;;;;;2.19;75.02;101141.41;692323;28;150614;-61
2021/01/04 01:33:24;;;;;;;4.57;4.18;;;;;;;2.15;74.99;101130.13;692984;28;130228;-61
2021/01/04 01:34:07;;;;;;;4.25;3.85;;;;;;;2.16;75.04;101134.47;683897;28;137344;-61
2021/01/04 01:34:51;;;;;;;4.07;3.67;;;;;;;2.18;75.10;101135.22;692281;28;137657;-61
2021/01/04 01:35:21;;;;;;;4.30;3.90;;;;;;;2.13;75.14;101124.03;692539;28;137760;-61
2021/01/04 01:35:58;;;;;;;4.50;4.10;;;;;;;2.19;75.05;101136.06;691269;28;138765;-61
2021/01/04 01:36:29;;;;;;;5.55;4.13;;;;;;;2.14;75.01;101126.59;691368;28;137680;-62
2021/01/04 01:37:23;;;;;;;4.68;4.13;;;;;;;2.16;74.77;101138.00;692852;28;135938;-63
2021/01/04 01:38:05;;;;;;;4.63;3.85;;;;;;;2.17;74.95;101137.03;691491;28;137563;-62
2021/01/04 01:38:41;;;;;;;4.93;4.28;;;;;;;2.18;75.05;101132.56;692833;28;137133;-63
2021/01/04 01:39:30;;;;;;;4.47;4.07;;;;;;;2.19;75.15;101133.41;695653;28;61488;-62
2021/01/04 01:40:03;;;;;;;4.63;3.83;;;;;;;2.17;75.18;101136.19;692702;28;138469;-61
2021/01/04 01:40:53;;;;;;;3.67;3.33;;;;;;;2.17;75.12;101134.38;692911;28;138635;-61
2021/01/04 01:41:46;;;;;;;4.80;4.15;;;;;;;2.19;75.06;101133.41;691835;28;160632;-61
2021/01/04 01:42:28;;;;;;;4.43;4.03;;;;;;;2.15;74.98;101135.47;692285;28;112887;-62
2021/01/04 01:43:25;;;;;;;6.07;4.18;;;;;;;2.17;75.12;101134.38;692174;28;116363;-61
2021/01/04 01:43:58;;;;;;;4.03;3.72;;;;;;;2.18;75.03;101137.91;681031;28;137700;-62
2021/01/04 01:44:21;;;;;;;4.30;3.90;;;;;;;2.19;75.15;101136.91;691528;28;160252;-62
2021/01/04 01:44:46;;;;;;;4.13;3.80;;;;;;;2.19;75.09;101139.59;694074;28;91901;-63
2021/01/04 01:45:15;;;;;;;4.55;4.10;;;;;;;2.19;75.10;101142.25;693178;28;114442;-63
2021/01/04 01:45:39;;;;;;;4.38;3.95;;;;;;;2.20;75.15;101140.44;692711;28;137948;-62
2021/01/04 01:46:07;;;;;;;4.32;3.92;;;;;;;2.22;75.16;101146.50;694476;28;92569;-62
2021/01/04 01:46:34;;;;;;;4.68;4.28;;;;;;;2.20;75.23;101138.63;693455;28;138675;-61
2021/01/04 01:47:00;;;;;;;4.50;4.00;;;;;;;2.17;75.16;101134.38;691794;28;161402;-61
2021/01/04 01:47:24;;;;;;;4.72;3.80;;;;;;;2.21;75.14;101131.47;692343;28;137919;-62
2021/01/04 01:47:53;;;;;;;5.00;4.03;;;;;;;2.20;75.01;101138.63;693691;28;91942;-63
2021/01/04 01:48:21;;;;;;;4.05;3.72;;;;;;;2.19;74.97;101142.25;692626;28;136210;-62
2021/01/04 01:48:48;;;;;;;4.20;3.67;;;;;;;2.17;75.05;101139.69;691364;28;137929;-60
2021/01/04 01:49:50;;;;;;;4.47;3.70;;;;;;;2.19;75.15;101136.06;692929;28;138081;-61
2021/01/04 01:50:18;;;;;;;4.55;4.15;;;;;;;2.18;75.00;101143.22;685892;28;137701;-61
2021/01/04 01:50:45;;;;;;;3.83;3.53;;;;;;;2.19;75.07;101134.25;691442;28;137824;-62
2021/01/04 01:51:18;;;;;;;4.30;3.90;;;;;;;2.20;75.08;101137.78;692729;28;136325;-60
2021/01/04 01:52:24;;;;;;;4.60;4.20;;;;;;;2.19;75.10;101139.59;694358;28;131208;-61
2021/01/04 01:52:53;;;;;;;3.78;3.42;;;;;;;2.19;75.06;101138.75;673856;29;136050;-61
2021/01/04 01:53:23;;;;;;;3.95;3.55;;;;;;;2.20;75.02;101132.47;684142;28;161226;-61
2021/01/04 01:53:58;;;;;;;4.18;3.80;;;;;;;2.17;75.05;101137.03;691937;28;161748;-62
2021/01/04 01:54:44;;;;;;;4.43;4.13;;;;;;;2.21;75.04;101136.81;692459;28;137631;-62
2021/01/04 01:55:21;;;;;;;4.20;3.78;;;;;;;2.20;75.11;101137.78;689099;28;157736;-61
2021/01/04 01:56:06;;;;;;;4.13;3.67;;;;;;;2.19;75.01;101136.06;690620;28;159292;-61
2021/01/04 01:56:35;;;;;;;5.47;4.55;;;;;;;2.20;74.90;101138.63;689728;28;137807;-63
2021/01/04 01:57:25;;;;;;;4.25;3.85;;;;;;;2.17;75.03;101139.69;693966;28;99641;-64
2021/01/04 01:58:34;;;;;;;4.20;3.90;;;;;;;2.20;75.07;101145.78;693105;28;130809;-62
2021/01/04 01:59:15;;;;;;;4.22;3.83;;;;;;;2.20;74.83;101138.63;681931;28;137513;-62
2021/01/04 01:59:55;;;;;;;3.83;3.53;;;;;;;2.19;75.03;101136.91;682068;28;118653;-61
2021/01/04 02:00:21;;;;;;;5.13;4.32;;;;;;;2.19;75.09;101136.06;690293;28;134617;-61
2021/01/04 02:00:45;;;;;;;4.13;3.80;;;;;;;2.17;75.06;101138.84;694115;28;99595;-62
2021/01/04 02:01:15;;;;;;;3.90;3.60;;;;;;;2.17;74.98;101130.84;692082;28;115346;-61
2021/01/04 02:01:44;;;;;;;4.43;3.80;;;;;;;2.17;75.03;101131.69;692643;28;128824;-62
2021/01/04 02:02:09;;;;;;;4.38;3.97;;;;;;;2.19;74.99;101141.41;692515;28;137743;-62
2021/01/04 02:02:36;;;;;;;4.18;3.78;;;;;;;2.16;74.97;101134.47;694275;28;92117;-63
2021/01/04 02:03:02;;;;;;;3.95;3.65;;;;;;;2.19;75.13;101141.41;689239;28;138106;-61
2021/01/04 02:03:32;;;;;;;4.80;3.75;;;;;;;2.17;75.09;101141.50;688155;28;138078;-62
2021/01/04 02:04:02;;;;;;;5.18;4.18;;;;;;;2.20;75.15;101143.13;689175;28;137529;-61
2021/01/04 02:04:35;;;;;;;4.35;3.95;;;;;;;2.19;75.07;101144.06;688618;28;160220;-62
2021/01/04 02:05:01;;;;;;;4.00;3.67;;;;;;;2.19;75.07;101142.25;691368;28;137618;-62
2021/01/04 02:05:30;;;;;;;4.50;3.78;;;;;;;2.19;75.05;101139.59;692521;28;138057;-63
2021/01/04 02:06:12;;;;;;;5.20;3.90;;;;;;;2.19;74.97;101144.91;692933;28;137479;-63
2021/01/04 02:06:49;;;;;;;4.10;3.70;;;;;;;2.19;75.03;101136.91;692870;28;136116;-62
2021/01/04 02:07:11;;;;;;;4.80;4.40;;;;;;;2.19;74.97;101142.25;692743;28;138615;-62
2021/01/04 02:07:36;;;;;;;5.03;4.25;;;;;;;2.18;74.87;101137.91;693441;28;69541;-62
2021/01/04 02:08:00;;;;;;;4.95;4.18;;;;;;;2.19;75.06;101139.59;692211;28;113516;-62
2021/01/04 02:08:24;;;;;;;4.40;4.03;;;;;;;2.16;74.92;101137.13;693299;28;81533;-62
2021/01/04 02:08:59;;;;;;;4.15;3.80;;;;;;;2.18;75.07;101143.22;694357;28;92250;-62
2021/01/04 02:09:23;;;;;;;4.15;3.78;;;;;;;2.19;75.01;101144.91;692532;28;137553;-61
2021/01/04 02:09:47;;;;;;;3.88;3.58;;;;;;;2.20;75.15;101137.78;694236;28;91804;-61
2021/01/04 02:10:13;;;;;;;4.45;4.05;;;;;;;2.19;75.06;101142.25;693330;28;115915;-62
2021/01/04 02:10:37;;;;;;;5.38;4.32;;;;;;;2.19;75.12;101139.59;693264;28;115946;-60
2021/01/04 02:11:02;;;;;;;4.57;4.00;;;;;;;2.20;75.13;101146.63;694390;28;85221;-61
2021/01/04 02:11:33;;;;;;;4.38;3.90;;;;;;;2.19;75.15;101136.91;693717;28;112032;-61
2021/01/04 02:12:05;;;;;;;5.20;3.75;;;;;;;2.21;75.10;101147.47;692649;28;137653;-62
2021/01/04 02:12:43;;;;;;;4.60;3.92;;;;;;;2.20;75.36;101137.78;692604;28;136037;-63
2021/01/04 02:13:11;;;;;;;4.60;3.92;;;;;;;2.20;75.12;101143.13;692281;28;138428;-63
2021/01/04 02:13:36;;;;;;;4.35;3.95;;;;;;;2.20;75.14;101145.78;692245;28;138625;-62
2021/01/04 02:14:02;;;;;;;4.13;3.72;;;;;;;2.20;75.03;101135.97;694698;28;114867;-62
2021/01/04 02:14:37;;;;;;;4.90;3.92;;;;;;;2.20;75.09;101135.97;691586;28;137542;-62
2021/01/04 02:15:05;;;;;;;5.40;3.83;;;;;;;2.21;75.23;101143.00;691872;28;136472;-61
2021/01/04 02:15:33;;;;;;;4.20;3.80;;;;;;;2.21;75.12;101142.13;693547;28;111707;-62
2021/01/04 02:15:58;;;;;;;4.28;3.90;;;;;;;2.21;75.24;101145.66;692769;28;139014;-62
2021/01/04 02:16:28;;;;;;;4.43;4.03;;;;;;;2.21;74.87;101142.13;693470;28;115751;-62
2021/01/04 02:17:03;;;;;;;4.18;3.83;;;;;;;2.16;75.02;101143.34;692533;28;137942;-62
2021/01/04 02:17:34;;;;;;;4.28;3.88;;;;;;;2.20;75.33;101141.28;690492;28;160930;-62
2021/01/04 02:18:10;;;;;;;4.45;3.83;;;;;;;2.22;75.17;101146.50;692653;28;137536;-62
2021/01/04 02:18:43;;;;;;;4.57;4.13;;;;;;;2.22;75.04;101143.84;692673;28;138170;-62
2021/01/04 02:19:16;;;;;;;4.03;3.70;;;;;;;2.21;75.10;101148.34;692126;28;136608;-63
2021/01/04 02:19:48;;;;;;;4.47;3.88;;;;;;;2.21;75.02;101148.34;692559;28;138438;-63
2021/01/04 02:20:29;;;;;;;4.18;3.72;;;;;;;2.21;75.15;101147.47;691780;28;138413;-61
2021/01/04 02:21:28;;;;;;;4.22;3.83;;;;;;;2.22;74.90;101151.84;692672;28;136266;-63
2021/01/04 02:22:33;;;;;;;3.83;3.53;;;;;;;2.22;75.01;101152.69;693026;28;131592;-61
2021/01/04 02:23:12;;;;;;;4.13;3.80;;;;;;;2.22;75.06;101151.84;682860;28;135804;-61
2021/01/04 02:23:41;;;;;;;4.25;3.90;;;;;;;2.19;75.15;101144.91;682814;28;136057;-62
2021/01/04 02:24:08;;;;;;;4.40;4.00;;;;;;;2.23;75.13;101151.72;683801;28;161841;-63
2021/01/04 02:24:30;;;;;;;4.20;3.75;;;;;;;2.22;75.13;101143.84;693546;28;111267;-63
2021/01/04 02:24:51;;;;;;;4.10;3.60;;;;;;;2.21;75.19;101145.66;695862;28;46590;-63
2021/01/04 02:25:13;;;;;;;4.13;3.72;;;;;;;2.22;75.12;101146.50;695820;28;21622;-63
2021/01/04 02:25:37;;;;;;;3.95;3.63;;;;;;;2.21;75.19;101147.47;695870;28;44224;-63
2021/01/04 02:26:01;;;;;;;4.00;3.70;;;;;;;2.21;74.86;101151.00;694381;28;90313;-63
2021/01/04 02:26:27;;;;;;;4.03;3.72;;;;;;;2.20;74.92;101143.97;695094;28;70000;-62
2021/01/04 02:26:52;;;;;;;3.90;3.60;;;;;;;2.22;75.04;101146.50;691897;28;161909;-63
2021/01/04 02:27:16;;;;;;;4.40;3.90;;;;;;;2.22;74.89;101143.84;692355;28;139170;-63
2021/01/04 02:27:40;;;;;;;4.55;4.07;;;;;;;2.22;75.01;101146.50;695055;28;70250;-63
2021/01/04 02:28:04;;;;;;;3.78;3.47;;;;;;;2.20;75.06;101143.97;693751;28;116145;-63
2021/01/04 02:28:29;;;;;;;3.90;3.60;;;;;;;2.22;74.81;101146.50;695536;28;63483;-62
2021/01/04 02:29:06;;;;;;;4.80;4.00;;;;;;;2.20;75.04;101137.78;693332;28;115922;-63
2021/01/04 02:29:27;;;;;;;3.92;3.55;;;;;;;2.21;75.01;101145.66;692436;28;137500;-63
2021/01/04 02:29:49;;;;;;;4.30;3.90;;;;;;;2.22;75.08;101149.19;695788;28;44343;-62
2021/01/04 02:30:12;;;;;;;4.25;3.80;;;;;;;2.21;75.08;101142.13;695639;28;46327;-64
2021/01/04 02:30:33;;;;;;;3.97;3.67;;;;;;;2.22;75.01;101142.03;695815;28;46328;-62
2021/01/04 02:30:54;;;;;;;3.88;3.58;;;;;;;2.21;74.86;101140.34;696292;28;24381;-62
2021/01/04 02:31:16;;;;;;;4.47;3.92;;;;;;;2.22;74.92;101141.19;695591;28;47439;-63